createdAt,value
2023-01-04T00:00:24.372Z,1.20
2023-01-04T00:02:54.966Z,1.23
2023-01-04T00:05:24.249Z,1.20
2023-01-04T00:07:52.918Z,1.40
2023-01-04T00:10:21.754Z,1.10
2023-01-04T00:12:50.424Z,1.27
2023-01-04T00:15:19.324Z,1.10
2023-01-04T00:17:48.449Z,1.10
2023-01-04T00:20:18.713Z,0.82
2023-01-04T00:22:47.370Z,1.20
2023-01-04T00:25:16.149Z,1.00
2023-01-04T00:27:44.878Z,0.82
2023-01-04T00:30:14.166Z,0.90
2023-01-04T00:32:43.036Z,1.13
2023-01-04T00:35:27.091Z,0.73
2023-01-04T00:38:03.598Z,1.00
2023-01-04T00:40:32.647Z,1.02
2023-01-04T00:43:01.247Z,0.70
2023-01-04T00:45:30.343Z,0.98
2023-01-04T00:47:58.998Z,1.00
2023-01-04T00:50:27.940Z,1.58
2023-01-04T00:52:56.723Z,1.30
2023-01-04T00:55:26.089Z,1.13
2023-01-04T00:57:54.795Z,0.73
2023-01-04T01:00:24.628Z,0.90
2023-01-04T01:02:53.520Z,1.08
2023-01-04T01:05:23.062Z,1.10
2023-01-04T01:07:52.449Z,1.00
2023-01-04T01:10:22.392Z,1.02
2023-01-04T01:12:51.083Z,1.20
2023-01-04T01:15:20.484Z,1.13
2023-01-04T01:17:49.437Z,1.13
2023-01-04T01:20:18.912Z,0.90
2023-01-04T01:22:48.433Z,1.08
2023-01-04T01:25:18.141Z,1.00
2023-01-04T01:27:46.948Z,1.00
2023-01-04T01:30:16.203Z,1.08
2023-01-04T01:32:44.827Z,1.17
2023-01-04T01:35:13.810Z,1.45
2023-01-04T01:37:42.587Z,1.30
2023-01-04T01:40:12.451Z,1.10
2023-01-04T01:42:41.266Z,1.30
2023-01-04T01:45:36.547Z,1.17
2023-01-04T01:48:13.808Z,1.23
2023-01-04T01:50:48.281Z,1.05
2023-01-04T01:53:18.424Z,1.38
2023-01-04T01:55:50.240Z,1.42
2023-01-04T01:58:32.611Z,1.35
2023-01-04T02:01:02.513Z,1.40
2023-01-04T02:03:40.281Z,1.02
2023-01-04T02:06:13.605Z,1.40
2023-01-04T02:08:44.236Z,1.48
2023-01-04T02:50:33.811Z,1.40
2023-01-04T02:53:15.415Z,1.60
2023-01-04T02:56:03.636Z,1.67
2023-01-04T02:58:39.016Z,1.30
2023-01-04T03:01:59.024Z,1.50
2023-01-04T03:05:23.513Z,1.75
2023-01-04T04:22:42.014Z,2.45
2023-01-04T04:25:11.407Z,2.65
2023-01-04T04:27:40.065Z,2.78
2023-01-04T04:30:09.647Z,2.77
2023-01-04T04:32:38.227Z,2.95
2023-01-04T04:35:07.460Z,2.80
2023-01-04T04:37:38.133Z,3.20
2023-01-04T04:40:08.042Z,2.95
2023-01-04T04:42:36.659Z,2.95
2023-01-04T04:45:06.924Z,2.92
2023-01-04T04:47:35.981Z,2.60
2023-01-04T04:50:04.741Z,2.80
2023-01-04T04:52:34.667Z,3.00
2023-01-04T04:55:03.444Z,2.95
2023-01-04T04:57:32.359Z,2.65
2023-01-04T05:00:01.213Z,2.50
2023-01-04T05:02:30.419Z,2.97
2023-01-04T05:04:59.367Z,2.95
2023-01-04T05:07:29.245Z,2.95
2023-01-04T05:09:57.867Z,3.42
2023-01-04T05:12:45.136Z,3.58
2023-01-04T05:15:14.524Z,3.22
2023-01-04T05:17:43.202Z,3.10
2023-01-04T05:20:12.774Z,3.35
2023-01-04T05:22:41.999Z,3.20
2023-01-04T05:25:12.946Z,3.10
2023-01-04T05:27:42.536Z,2.83
2023-01-04T05:30:31.941Z,3.00
2023-01-04T05:33:01.733Z,3.30
2023-01-04T05:35:30.439Z,3.33
2023-01-04T05:37:59.950Z,3.35
2023-01-04T05:40:28.621Z,3.30
2023-01-04T05:42:57.966Z,2.72
2023-01-04T05:45:27.869Z,3.50
2023-01-04T05:47:57.217Z,3.05
2023-01-04T05:50:26.338Z,3.13
2023-01-04T05:52:55.189Z,3.20
2023-01-04T05:55:23.864Z,3.38
2023-01-04T05:57:53.363Z,3.17
2023-01-04T06:00:23.388Z,3.75
2023-01-04T06:02:56.358Z,3.70
2023-01-04T06:05:26.216Z,3.90
2023-01-04T06:07:56.551Z,3.70
2023-01-04T06:10:25.990Z,3.90
2023-01-04T06:12:54.759Z,4.00
2023-01-04T06:15:23.969Z,3.60
2023-01-04T06:17:52.589Z,3.80
2023-01-04T06:20:21.591Z,4.18
2023-01-04T06:22:50.329Z,4.70
2023-01-04T06:25:19.577Z,4.25
2023-01-04T06:27:48.258Z,4.10
2023-01-04T06:30:17.216Z,3.97
2023-01-04T06:32:46.197Z,4.40
2023-01-04T06:35:16.758Z,4.20
2023-01-04T06:37:45.553Z,4.05
2023-01-04T06:40:14.469Z,4.40
2023-01-04T06:42:45.881Z,4.80
2023-01-04T06:45:17.004Z,4.63
2023-01-04T06:47:45.994Z,4.45
2023-01-04T06:50:14.745Z,3.95
2023-01-04T06:52:44.479Z,4.05
2023-01-04T06:55:14.434Z,4.10
2023-01-04T06:57:44.145Z,3.97
2023-01-04T07:00:16.598Z,4.10
2023-01-04T07:03:12.551Z,3.80
2023-01-04T07:05:35.313Z,4.45
2023-01-04T07:08:08.129Z,4.22
2023-01-04T07:10:38.043Z,3.70
2023-01-04T07:13:08.034Z,3.95
2023-01-04T07:15:40.709Z,4.82
2023-01-04T07:18:12.397Z,4.95
2023-01-04T07:20:41.495Z,4.70
2023-01-04T07:23:10.303Z,4.47
2023-01-04T07:25:39.177Z,4.78
2023-01-04T07:28:08.087Z,4.60
2023-01-04T07:30:37.404Z,4.67
2023-01-04T07:33:06.257Z,4.75
2023-01-04T07:35:35.220Z,4.70
2023-01-04T07:38:04.698Z,4.72
2023-01-04T07:40:33.744Z,4.55
2023-01-04T07:43:03.054Z,4.80
2023-01-04T07:45:31.946Z,4.88
2023-01-04T07:48:00.693Z,5.57
2023-01-04T07:50:29.937Z,6.30
2023-01-04T07:52:58.844Z,5.50
2023-01-04T07:55:27.867Z,5.20
2023-01-04T07:57:56.756Z,5.47
2023-01-04T08:00:25.956Z,5.53
2023-01-04T08:02:54.798Z,5.63
2023-01-04T08:05:25.862Z,5.40
2023-01-04T08:07:54.995Z,5.10
2023-01-04T08:10:23.900Z,5.53
2023-01-04T08:12:52.860Z,5.57
2023-01-04T08:15:21.632Z,5.03
2023-01-04T08:17:50.631Z,5.65
2023-01-04T08:20:19.847Z,4.90
2023-01-04T08:22:48.704Z,5.27
2023-01-04T08:25:20.337Z,4.95
2023-01-04T08:27:49.606Z,4.95
2023-01-04T08:30:18.554Z,5.18
2023-01-04T08:32:49.813Z,5.00
2023-01-04T08:35:19.239Z,5.07
2023-01-04T08:37:47.896Z,5.50
2023-01-04T08:40:17.064Z,5.63
2023-01-04T08:42:47.080Z,5.50
2023-01-04T08:45:16.092Z,5.30
2023-01-04T08:47:44.884Z,5.82
2023-01-04T08:50:15.392Z,5.20
2023-01-04T08:52:44.366Z,5.93
2023-01-04T08:55:15.264Z,5.88
2023-01-04T08:57:46.733Z,5.63
2023-01-04T09:00:15.887Z,6.10
2023-01-04T09:02:44.813Z,5.18
2023-01-04T09:05:22.427Z,5.43
2023-01-04T09:07:52.761Z,5.35
2023-01-04T09:10:21.510Z,5.22
2023-01-04T09:12:50.697Z,5.55
2023-01-04T09:15:19.685Z,5.90
2023-01-04T09:18:29.494Z,5.60
2023-01-04T09:20:40.493Z,6.22
2023-01-04T09:23:09.069Z,5.27
2023-01-04T09:25:41.125Z,5.30
2023-01-04T09:28:10.554Z,6.68
2023-01-04T09:30:39.269Z,7.83
2023-01-04T09:33:08.388Z,9.60
2023-01-04T09:35:37.103Z,6.45
2023-01-04T09:38:06.187Z,5.80
2023-01-04T09:40:47.861Z,5.80
2023-01-04T09:43:22.417Z,5.30
2023-01-04T09:45:58.587Z,4.88
2023-01-04T09:48:33.149Z,4.72
2023-01-04T09:51:12.407Z,4.57
2023-01-04T09:53:47.914Z,4.70
2023-01-04T09:56:27.857Z,5.03
2023-01-04T09:58:57.508Z,6.03
2023-01-04T10:01:32.251Z,5.60
2023-01-04T10:04:28.963Z,5.20
2023-01-04T10:07:04.646Z,4.53
2023-01-04T10:09:35.299Z,4.45
2023-01-04T10:12:31.545Z,3.95
2023-01-04T10:15:17.637Z,4.40
2023-01-04T10:21:41.653Z,4.10
2023-01-04T10:24:20.106Z,4.40
2023-01-04T10:26:51.570Z,4.53
2023-01-04T10:29:27.953Z,4.35
2023-01-04T10:32:18.207Z,4.72
2023-01-04T10:34:49.253Z,4.85
2023-01-04T10:37:25.556Z,4.50
2023-01-04T10:39:56.688Z,4.65
2023-01-04T10:42:32.532Z,4.90
2023-01-04T10:45:20.995Z,5.07
2023-01-04T10:47:56.546Z,5.15
2023-01-04T10:50:38.318Z,4.80
2023-01-04T10:53:24.088Z,4.70
2023-01-04T10:56:25.893Z,4.68
2023-01-04T10:59:07.490Z,3.95
2023-01-04T11:02:17.558Z,4.10
2023-01-04T11:05:00.153Z,3.60
2023-01-04T11:07:39.741Z,3.83
2023-01-04T11:10:16.619Z,4.10
2023-01-04T11:12:46.921Z,4.47
2023-01-04T11:15:16.112Z,3.92
2023-01-04T11:17:46.117Z,4.28
2023-01-04T11:20:15.045Z,3.85
2023-01-04T11:23:03.260Z,4.50
2023-01-04T11:25:40.840Z,6.10
2023-01-04T11:28:52.924Z,8.37
2023-01-04T11:31:38.501Z,13.10
2023-01-04T11:34:08.102Z,6.57
2023-01-04T11:36:48.539Z,7.45
2023-01-04T11:39:22.135Z,12.75
2023-01-04T11:42:03.585Z,10.18
2023-01-04T11:44:37.164Z,8.88
2023-01-04T11:47:15.160Z,12.10
2023-01-04T11:49:43.995Z,12.95
2023-01-04T11:52:34.289Z,15.30
2023-01-04T11:55:26.156Z,16.08
2023-01-04T11:58:17.113Z,17.23
2023-01-04T12:00:56.810Z,10.40
2023-01-04T12:03:40.990Z,12.10
2023-01-04T12:06:23.622Z,7.55
2023-01-04T12:08:53.376Z,3.92
2023-01-04T12:11:30.891Z,4.50
2023-01-04T12:14:01.017Z,7.68
2023-01-04T12:17:06.284Z,4.25
2023-01-04T12:19:37.807Z,5.40
2023-01-04T12:22:25.467Z,6.65
2023-01-04T12:25:00.300Z,6.60
2023-01-04T12:27:30.446Z,6.53
2023-01-04T12:30:00.621Z,6.93
2023-01-04T12:32:29.400Z,8.88
2023-01-04T12:34:58.365Z,10.63
2023-01-04T12:37:43.429Z,11.07
2023-01-04T12:40:46.125Z,10.27
2023-01-04T12:43:18.215Z,9.55
2023-01-04T12:46:11.187Z,9.55
2023-01-04T12:48:58.119Z,8.68
2023-01-04T12:51:32.805Z,7.68
2023-01-04T12:54:07.224Z,6.85
2023-01-04T12:57:13.018Z,7.80
2023-01-04T12:59:57.766Z,8.25
2023-01-04T13:02:37.215Z,7.95
2023-01-04T13:08:16.133Z,6.13
2023-01-04T13:10:53.367Z,6.07
2023-01-04T13:13:31.451Z,6.22
2023-01-04T13:16:11.748Z,5.75
2023-01-04T13:18:55.587Z,5.68
2023-01-04T13:21:39.314Z,5.50
2023-01-04T13:24:32.947Z,5.07
2023-01-04T13:27:15.305Z,8.18
2023-01-04T13:29:44.224Z,5.93
2023-01-04T13:32:33.430Z,5.80
2023-01-04T13:35:16.268Z,4.82
2023-01-04T13:37:50.858Z,5.80
2023-01-04T13:40:28.096Z,4.90
2023-01-04T13:43:28.427Z,4.57
2023-01-04T13:46:20.601Z,4.15
2023-01-04T13:48:53.094Z,5.32
2023-01-04T13:51:33.818Z,4.88
2023-01-04T13:54:07.731Z,5.50
2023-01-04T13:56:37.001Z,5.20
2023-01-04T13:59:05.777Z,5.10
2023-01-04T14:01:39.490Z,4.75
2023-01-04T14:04:29.855Z,9.27
2023-01-04T14:07:04.045Z,5.38
2023-01-04T14:09:43.552Z,4.33
2023-01-04T14:12:19.219Z,4.63
2023-01-04T14:15:02.128Z,4.70
2023-01-04T14:17:48.510Z,5.47
2023-01-04T14:20:20.410Z,4.60
2023-01-04T14:22:49.288Z,3.95
2023-01-04T14:25:38.862Z,4.03
2023-01-04T14:28:23.539Z,4.03
2023-01-04T14:31:01.655Z,4.32
2023-01-04T14:33:37.275Z,4.80
2023-01-04T14:36:09.161Z,5.20
2023-01-04T14:38:39.460Z,5.72
2023-01-04T14:41:23.467Z,4.55
2023-01-04T14:44:12.632Z,5.32
2023-01-04T14:46:44.229Z,4.60
2023-01-04T14:49:13.236Z,5.30
2023-01-04T14:51:52.196Z,5.40
2023-01-04T14:54:24.926Z,6.30
2023-01-04T14:56:56.185Z,6.20
2023-01-04T14:59:25.972Z,5.90
2023-01-04T15:01:56.534Z,5.90
2023-01-04T15:04:26.437Z,6.55
2023-01-04T15:07:04.934Z,6.50
2023-01-04T15:09:34.403Z,6.53
2023-01-04T15:12:03.332Z,6.00
2023-01-04T15:14:32.370Z,6.20
2023-01-04T15:17:01.226Z,6.55
2023-01-04T15:19:37.353Z,7.13
2023-01-04T15:22:07.583Z,6.72
2023-01-04T15:24:36.286Z,6.97
2023-01-04T15:27:05.154Z,7.18
2023-01-04T15:29:33.851Z,6.60
2023-01-04T15:32:02.940Z,6.00
2023-01-04T15:34:31.624Z,5.65
2023-01-04T15:37:00.623Z,6.43
2023-01-04T15:39:29.590Z,5.95
2023-01-04T15:42:16.918Z,5.63
2023-01-04T15:44:45.829Z,5.20
2023-01-04T15:47:14.664Z,5.03
2023-01-04T15:49:44.436Z,5.53
2023-01-04T15:52:13.174Z,5.38
2023-01-04T15:54:42.007Z,5.28
2023-01-04T15:57:10.922Z,5.05
2023-01-04T15:59:39.833Z,4.68
2023-01-04T16:02:12.027Z,4.95
2023-01-04T16:04:41.249Z,5.00
2023-01-04T16:07:09.917Z,4.60
2023-01-04T16:09:39.652Z,4.70
2023-01-04T16:12:27.198Z,5.28
2023-01-04T16:14:56.218Z,5.30
2023-01-04T16:17:26.203Z,5.18
2023-01-04T16:19:55.167Z,5.90
2023-01-04T16:22:24.057Z,6.05
2023-01-04T16:27:42.610Z,4.93
2023-01-04T16:30:14.567Z,5.22
2023-01-04T16:32:44.745Z,4.53
2023-01-04T16:35:13.588Z,3.90
2023-01-04T16:37:43.879Z,4.53
2023-01-04T16:40:13.453Z,5.82
2023-01-04T16:42:42.587Z,8.32
2023-01-04T16:45:12.519Z,8.18
2023-01-04T16:47:43.952Z,3.55
2023-01-04T16:50:14.450Z,5.13
2023-01-04T16:52:44.304Z,4.47
2023-01-04T16:55:14.406Z,4.25
2023-01-04T16:57:44.098Z,4.85
2023-01-04T17:00:14.466Z,4.30
2023-01-04T17:02:43.799Z,4.20
2023-01-04T17:05:12.636Z,3.92
2023-01-04T17:07:42.191Z,4.22
2023-01-04T17:10:11.013Z,4.30
2023-01-04T17:12:48.833Z,4.93
2023-01-04T17:18:08.701Z,26.65
2023-01-04T17:20:38.913Z,10.25
2023-01-04T17:23:08.661Z,6.30
2023-01-04T17:25:37.551Z,4.43
2023-01-04T17:28:07.422Z,4.05
2023-01-04T17:30:42.827Z,4.10
2023-01-04T17:33:12.641Z,4.50
2023-01-04T17:35:42.783Z,4.07
2023-01-04T17:38:11.886Z,3.65
2023-01-04T17:40:40.818Z,4.00
2023-01-04T17:43:10.352Z,3.60
2023-01-04T17:45:39.239Z,3.38
2023-01-04T17:48:08.357Z,3.58
2023-01-04T17:50:37.543Z,3.35
2023-01-04T17:53:06.509Z,3.85
2023-01-04T17:55:36.120Z,3.78
2023-01-04T17:58:08.006Z,4.00
2023-01-04T18:00:41.280Z,4.35
2023-01-04T18:03:10.150Z,4.35
2023-01-04T18:05:51.275Z,3.95
2023-01-04T18:08:21.967Z,4.63
2023-01-04T18:11:06.594Z,4.28
2023-01-04T18:16:29.696Z,3.80
2023-01-04T18:19:00.656Z,4.80
2023-01-04T18:21:31.691Z,4.68
2023-01-04T18:27:20.523Z,8.00
2023-01-04T18:29:43.577Z,8.73
2023-01-04T18:32:12.296Z,10.07
2023-01-04T18:34:41.191Z,10.98
2023-01-04T18:37:09.985Z,10.82
2023-01-04T18:39:38.905Z,10.67
2023-01-04T18:42:07.848Z,10.20
2023-01-04T18:44:39.733Z,12.45
2023-01-04T18:47:13.086Z,13.95
2023-01-04T18:49:42.556Z,13.80
2023-01-04T18:52:11.617Z,12.70
2023-01-04T18:54:40.208Z,12.07
2023-01-04T18:57:09.205Z,11.35
2023-01-04T18:59:38.127Z,10.48
2023-01-04T19:02:07.335Z,11.85
2023-01-04T19:04:38.647Z,11.95
2023-01-04T19:07:08.011Z,10.40
2023-01-04T19:09:36.995Z,11.25
2023-01-04T19:12:06.367Z,10.10
2023-01-04T19:14:35.141Z,8.53
2023-01-04T19:17:04.286Z,6.30
2023-01-04T19:19:33.415Z,5.70
2023-01-04T19:22:02.307Z,5.53
2023-01-04T19:24:31.106Z,5.00
2023-01-04T19:27:03.809Z,3.90
2023-01-04T19:29:33.137Z,3.63
2023-01-04T19:32:01.821Z,3.30
2023-01-04T19:34:31.328Z,3.13
2023-01-04T19:37:00.018Z,2.50
2023-01-04T19:39:28.914Z,2.42
2023-01-04T19:41:57.883Z,2.55
2023-01-04T19:44:26.833Z,2.70
2023-01-04T19:46:55.781Z,2.90
2023-01-04T19:49:24.840Z,3.22
2023-01-04T19:51:53.625Z,3.03
2023-01-04T19:54:25.370Z,2.50
2023-01-04T19:56:55.740Z,2.70
2023-01-04T19:59:24.573Z,3.10
2023-01-04T20:01:53.648Z,3.70
2023-01-04T20:04:22.674Z,3.67
2023-01-04T20:06:51.503Z,4.78
2023-01-04T20:09:25.598Z,4.03
2023-01-04T20:11:55.557Z,3.85
2023-01-04T20:14:24.396Z,3.05
2023-01-04T20:16:53.597Z,3.22
2023-01-04T20:19:22.608Z,3.00
2023-01-04T20:21:51.572Z,3.25
2023-01-04T20:24:20.512Z,3.08
2023-01-04T20:26:49.386Z,3.00
2023-01-04T20:29:18.034Z,2.78
2023-01-04T20:31:47.096Z,3.33
2023-01-04T20:34:15.828Z,2.50
2023-01-04T20:36:44.750Z,2.30
2023-01-04T20:39:13.868Z,2.47
2023-01-04T20:42:02.611Z,2.13
2023-01-04T20:44:31.566Z,3.03
2023-01-04T20:47:00.351Z,2.28
2023-01-04T20:49:29.178Z,2.40
2023-01-04T20:51:57.956Z,2.72
2023-01-04T20:54:26.982Z,2.63
2023-01-04T20:56:55.782Z,2.97
2023-01-04T20:59:25.184Z,2.53
2023-01-04T21:01:54.088Z,2.88
2023-01-04T21:04:23.149Z,3.10
2023-01-04T21:06:52.001Z,2.92
2023-01-04T21:09:21.390Z,3.63
2023-01-04T21:11:50.162Z,2.88
2023-01-04T21:14:19.067Z,3.53
2023-01-04T21:16:47.964Z,3.57
2023-01-04T21:19:19.491Z,3.03
2023-01-04T21:21:48.405Z,2.50
2023-01-04T21:24:17.116Z,2.65
2023-01-04T21:26:46.097Z,3.08
2023-01-04T21:29:14.866Z,2.63
2023-01-04T21:31:43.800Z,2.60
2023-01-04T21:34:16.074Z,3.67
2023-01-04T21:36:47.420Z,6.45
2023-01-04T21:39:16.146Z,6.85
2023-01-04T21:41:48.036Z,6.95
2023-01-04T21:44:17.440Z,6.60
2023-01-04T21:46:46.371Z,7.60
2023-01-04T21:49:15.311Z,6.18
2023-01-04T21:51:44.247Z,5.68
2023-01-04T21:54:13.386Z,6.22
2023-01-04T21:56:42.079Z,5.80
2023-01-04T21:59:11.162Z,5.93
2023-01-04T22:01:39.981Z,4.80
2023-01-04T22:04:09.104Z,4.88
2023-01-04T22:06:42.505Z,5.13
2023-01-04T22:09:12.333Z,5.13
2023-01-04T22:11:41.787Z,4.10
2023-01-04T22:14:11.471Z,2.35
2023-01-04T22:16:40.527Z,2.17
2023-01-04T22:19:14.627Z,2.28
2023-01-04T22:21:44.331Z,2.40
2023-01-04T22:24:14.734Z,3.08
2023-01-04T22:26:43.985Z,3.40
2023-01-04T22:29:12.632Z,3.35
2023-01-04T22:31:41.845Z,3.50
2023-01-04T22:34:10.516Z,3.83
2023-01-04T22:36:39.240Z,4.23
2023-01-04T22:41:53.590Z,3.40
2023-01-04T22:44:22.290Z,2.70
2023-01-04T22:46:51.244Z,2.70
2023-01-04T22:49:20.000Z,2.60
2023-01-04T22:51:48.919Z,2.20
2023-01-04T22:54:17.744Z,2.53
2023-01-04T22:56:46.685Z,2.45
2023-01-04T22:59:15.396Z,1.80
2023-01-04T23:01:44.228Z,2.58
2023-01-04T23:04:17.023Z,2.38
2023-01-04T23:06:46.532Z,2.85
2023-01-04T23:09:18.463Z,3.25
2023-01-04T23:11:48.348Z,3.40
2023-01-04T23:14:18.813Z,3.70
2023-01-04T23:16:47.875Z,3.53
2023-01-04T23:19:16.929Z,3.55
2023-01-04T23:21:45.975Z,3.40
2023-01-04T23:24:16.103Z,3.53
2023-01-04T23:26:45.656Z,2.80
2023-01-04T23:29:14.576Z,2.83
2023-01-04T23:31:43.462Z,3.40
2023-01-04T23:34:13.963Z,3.05
2023-01-04T23:36:43.642Z,3.75
2023-01-04T23:39:17.146Z,4.15
2023-01-04T23:41:46.858Z,4.50
2023-01-04T23:44:27.565Z,4.53
2023-01-04T23:47:01.961Z,4.50
2023-01-04T23:49:32.770Z,4.30
2023-01-04T23:52:02.158Z,4.55
2023-01-04T23:54:31.359Z,4.60
2023-01-04T23:57:01.257Z,4.10
2023-01-04T23:59:30.423Z,4.55
